»·PEaware :: EJA814 KCMH-KSTL

EJA814 :: KCMH-KSTL

FLIGHT INFORMATION

Flight Status: Arrived
Operator:
Netjets Aviation
More flights by this operator :: More flights under this callsign
Pilot: Rick S. (2164)
Aircraft: CESSNA 750 CITATION 10
(C750)
More flights by this aircraft type
Origin: KCMH Port Columbus Intl
United States
Destination: KSTL Lambert-St Louis Intl
United States
More flights between these airports :: More routes between these airports
Route: DQN VHP AARCH2
File this flight plan on PilotEdge
Remarks: PBN / A1B2B4B5 DOF / 171125 REG / N948QS EET / KZKC0033 OPR / EJA RMK / TCAS SIMBRIEF
Altitude:
(Current/Filed)
28,000ft
Speed:
(Current/Filed)
470kts
Departed: 25-Nov-17 06:05 PM
Arrived: 25-Nov-17 07:46 PM
Distance/Time
Traveled:
355nm/1:41
Distance/Time
To Go:
Arrived

Flight Plot

Page will automatically refresh every two minutes.


Map Options




Map Legend


Flown Route
Filed Route
Departure Airport
Arrival Airport
Navaid (VOR, NDB)
Fix

Horizontal Profiles

Position Reports

Time Latitude Longitude Heading Altitude Ground
Speed
25-Nov-17 17:59 39.990869 -82.873658 91 819ft 0kts
25-Nov-17 18:00 39.990869 -82.873658 91 819ft 0kts
25-Nov-17 18:01 39.990869 -82.873658 91 819ft 0kts
25-Nov-17 18:02 39.990869 -82.873658 91 819ft 0kts
25-Nov-17 18:03 39.990869 -82.873658 91 819ft 0kts
25-Nov-17 18:04 39.990869 -82.873658 91 819ft 0kts
25-Nov-17 18:05 39.990869 -82.873658 91 819ft 0kts
25-Nov-17 18:06 39.991745 -82.871863 88 819ft 15kts
25-Nov-17 18:07 39.992720 -82.872784 338 819ft 0kts
25-Nov-17 18:08 39.992723 -82.872786 338 819ft 0kts
25-Nov-17 18:09 39.992726 -82.872788 338 819ft 0kts
25-Nov-17 18:10 39.993562 -82.874567 278 819ft 50kts
25-Nov-17 18:11 39.997074 -82.924155 279 1822ft 159kts
25-Nov-17 18:12 40.002240 -82.995393 281 4058ft 192kts
25-Nov-17 18:13 39.994624 -83.075514 272 4043ft 259kts
25-Nov-17 18:27 39.990869 -82.873658 91 819ft 0kts
25-Nov-17 18:28 39.990869 -82.873658 91 819ft 0kts
25-Nov-17 18:29 39.990869 -82.873658 91 819ft 0kts
25-Nov-17 18:30 39.990869 -82.873658 91 819ft 0kts
25-Nov-17 18:31 39.990869 -82.873658 91 819ft 0kts
25-Nov-17 18:32 39.990869 -82.873658 91 819ft 0kts
25-Nov-17 18:33 39.990869 -82.873658 91 819ft 0kts
25-Nov-17 18:34 39.990869 -82.873658 91 819ft 0kts
25-Nov-17 18:35 39.990869 -82.873658 91 819ft 0kts
25-Nov-17 18:36 39.990869 -82.873658 91 819ft 0kts
25-Nov-17 18:37 39.990869 -82.873658 91 819ft 0kts
25-Nov-17 18:38 39.990869 -82.873658 91 819ft 0kts
25-Nov-17 18:39 39.990869 -82.873658 91 819ft 0kts
25-Nov-17 18:40 39.990869 -82.873658 91 819ft 0kts
25-Nov-17 18:41 39.990869 -82.873658 91 819ft 0kts
25-Nov-17 18:42 39.990869 -82.873658 91 819ft 0kts
25-Nov-17 18:43 39.991773 -82.872225 90 819ft 13kts
25-Nov-17 18:44 39.992632 -82.872712 322 819ft 12kts
25-Nov-17 18:45 39.995286 -82.904853 274 1384ft 186kts
25-Nov-17 18:46 39.996610 -82.977810 272 5796ft 196kts
25-Nov-17 18:47 39.994934 -83.060262 275 9166ft 251kts
25-Nov-17 18:48 39.997142 -83.155941 275 12239ft 279kts
25-Nov-17 18:49 39.999062 -83.258900 275 15222ft 286kts
25-Nov-17 18:50 40.000897 -83.363768 275 18154ft 292kts
25-Nov-17 18:51 40.002865 -83.471736 276 20929ft 305kts
25-Nov-17 18:52 40.004897 -83.585971 277 23639ft 323kts
25-Nov-17 18:53 40.006755 -83.706003 277 26385ft 340kts
25-Nov-17 18:54 40.008278 -83.809684 277 27859ft 373kts
25-Nov-17 18:55 40.010330 -83.949490 277 28089ft 379kts
25-Nov-17 18:56 40.012015 -84.089313 277 28100ft 384kts
25-Nov-17 18:57 40.013624 -84.228073 277 28100ft 380kts
25-Nov-17 18:58 40.015085 -84.365189 277 28108ft 377kts
25-Nov-17 18:59 40.007688 -84.502453 268 28118ft 384kts
25-Nov-17 19:00 39.992100 -84.640292 269 28118ft 382kts
25-Nov-17 19:01 39.979319 -84.777710 270 28122ft 382kts
25-Nov-17 19:02 39.965975 -84.915738 269 28127ft 383kts
25-Nov-17 19:03 39.952386 -85.053383 269 28132ft 383kts
25-Nov-17 19:04 39.938518 -85.191262 270 28130ft 384kts
25-Nov-17 19:05 39.924441 -85.329904 269 28131ft 385kts
25-Nov-17 19:06 39.910170 -85.468096 269 28135ft 385kts
25-Nov-17 19:07 39.895738 -85.606324 269 28140ft 386kts
25-Nov-17 19:08 39.881146 -85.744978 269 28147ft 385kts
25-Nov-17 19:09 39.866514 -85.883120 270 28150ft 386kts
25-Nov-17 19:10 39.851883 -86.021790 270 28151ft 386kts
25-Nov-17 19:11 39.836895 -86.159923 269 28149ft 386kts
25-Nov-17 19:12 39.821593 -86.298098 269 28141ft 387kts
25-Nov-17 19:13 39.800638 -86.436377 260 28147ft 396kts
25-Nov-17 19:14 39.763874 -86.571775 259 28145ft 397kts
25-Nov-17 19:15 39.730433 -86.707918 260 28156ft 396kts
25-Nov-17 19:16 39.696802 -86.844590 259 28157ft 397kts
25-Nov-17 19:17 39.662937 -86.980802 259 28160ft 397kts
25-Nov-17 19:18 39.629014 -87.116966 259 28188ft 397kts
25-Nov-17 19:19 39.594616 -87.253680 259 28193ft 398kts
25-Nov-17 19:20 39.559988 -87.389814 259 28198ft 398kts
25-Nov-17 19:21 39.525097 -87.526423 259 28199ft 398kts
25-Nov-17 19:22 39.490081 -87.662526 259 28201ft 399kts
25-Nov-17 19:23 39.455001 -87.798762 259 28203ft 399kts
25-Nov-17 19:24 39.419980 -87.935346 259 28211ft 399kts
25-Nov-17 19:25 39.384474 -88.071395 259 28213ft 400kts
25-Nov-17 19:26 39.350768 -88.207832 259 28213ft 397kts
25-Nov-17 19:27 39.315474 -88.342012 258 28216ft 390kts
25-Nov-17 19:28 39.279953 -88.473699 258 26597ft 379kts
25-Nov-17 19:29 39.246325 -88.598903 258 24621ft 362kts
25-Nov-17 19:30 39.213786 -88.720292 257 22723ft 351kts
25-Nov-17 19:31 39.182078 -88.837105 256 20915ft 347kts
25-Nov-17 19:32 39.150818 -88.951174 256 20211ft 340kts
25-Nov-17 19:33 39.119897 -89.065574 256 20241ft 328kts
25-Nov-17 19:34 39.089421 -89.176214 256 18625ft 326kts
25-Nov-17 19:35 39.065217 -89.286650 259 16751ft 314kts
25-Nov-17 19:36 39.041267 -89.393594 258 15048ft 309kts
25-Nov-17 19:37 39.017323 -89.499411 257 13410ft 306kts
25-Nov-17 19:38 38.990504 -89.602995 241 11716ft 314kts
25-Nov-17 19:39 38.928829 -89.679528 227 10149ft 307kts
25-Nov-17 19:40 38.868645 -89.754766 230 9834ft 299kts
25-Nov-17 19:41 38.808084 -89.831561 229 8632ft 308kts
25-Nov-17 19:42 38.746549 -89.908802 229 7750ft 295kts
25-Nov-17 19:43 38.695004 -89.974269 230 7017ft 243kts
25-Nov-17 19:44 38.648550 -90.040215 236 5707ft 259kts
25-Nov-17 19:45 38.623652 -90.119124 290 4506ft 218kts
25-Nov-17 19:46 38.644485 -90.159213 308 4261ft 142kts
25-Nov-17 19:47 38.670462 -90.210838 304 3041ft 145kts
25-Nov-17 19:48 38.693617 -90.257390 302 2237ft 163kts
25-Nov-17 19:49 38.713213 -90.298320 303 1559ft 160kts
25-Nov-17 19:50 38.739592 -90.350178 299 620ft 133kts
25-Nov-17 19:51 38.749495 -90.371371 223 556ft 15kts
25-Nov-17 19:52 38.751469 -90.377153 304 556ft 20kts
25-Nov-17 19:53 38.753711 -90.374766 58 556ft 9kts
25-Nov-17 19:54 38.754519 -90.374972 265 556ft 0kts
25-Nov-17 19:55 38.754519 -90.374972 265 556ft 0kts
25-Nov-17 19:56 38.754519 -90.374972 265 556ft 0kts
25-Nov-17 19:57 38.754519 -90.374972 265 556ft 0kts
25-Nov-17 19:58 38.754519 -90.374972 265 556ft 0kts
25-Nov-17 19:59 38.754519 -90.374972 265 556ft 0kts
25-Nov-17 20:00 38.754519 -90.374972 265 556ft 0kts
25-Nov-17 20:01 38.754519 -90.374972 265 556ft 0kts
25-Nov-17 20:02 38.754519 -90.374972 265 556ft 0kts

Navigation Log

Ident Type
Flight plan parsing failed, navigation log unavailable